createdAt,value
2023-04-23T00:01:06.471Z,95.03
2023-04-23T00:03:34.618Z,95.26
2023-04-23T00:06:05.634Z,94.99
2023-04-23T00:08:32.911Z,94.31
2023-04-23T00:11:00.210Z,94.93
2023-04-23T00:13:27.915Z,94.54
2023-04-23T00:15:55.014Z,94.61
2023-04-23T00:18:21.462Z,94.69
2023-04-23T00:20:48.150Z,95.21
2023-04-23T00:23:14.580Z,95.42
2023-04-23T00:25:41.043Z,96.45
2023-04-23T00:28:07.509Z,95.85
2023-04-23T00:30:33.924Z,94.43
2023-04-23T00:33:00.644Z,93.04
2023-04-23T00:35:27.577Z,92.14
2023-04-23T00:37:53.938Z,93.66
2023-04-23T00:40:21.186Z,94.71
2023-04-23T00:42:48.774Z,96.86
2023-04-23T00:45:16.036Z,98.08
2023-04-23T00:47:43.360Z,99.28
2023-04-23T00:50:10.408Z,99.59
2023-04-23T00:52:39.080Z,100.00
2023-04-23T00:55:06.059Z,100.00
2023-04-23T00:57:33.288Z,100.00
2023-04-23T01:00:00.319Z,100.00
2023-04-23T01:02:30.930Z,100.00
2023-04-23T01:04:59.751Z,100.00
2023-04-23T01:07:27.083Z,100.00
2023-04-23T01:09:54.405Z,100.00
2023-04-23T01:12:22.605Z,100.00
2023-04-23T01:14:49.167Z,100.00
2023-04-23T01:17:16.308Z,100.00
2023-04-23T01:19:42.768Z,100.00
2023-04-23T01:22:11.711Z,100.00
2023-04-23T01:24:39.623Z,100.00
2023-04-23T01:27:07.248Z,100.00
2023-04-23T01:29:34.780Z,100.00
2023-04-23T01:32:02.820Z,100.00
2023-04-23T01:34:30.926Z,100.00
2023-04-23T01:36:58.979Z,100.00
2023-04-23T01:39:26.082Z,100.00
2023-04-23T01:41:53.541Z,100.00
2023-04-23T01:44:20.018Z,100.00
2023-04-23T01:46:47.322Z,100.00
2023-04-23T01:49:14.457Z,100.00
2023-04-23T01:51:43.106Z,100.00
2023-04-23T01:54:09.539Z,100.00
2023-04-23T01:56:36.389Z,100.00
2023-04-23T01:59:02.904Z,100.00
2023-04-23T02:01:46.689Z,100.00
2023-04-23T02:04:14.990Z,100.00
2023-04-23T02:06:43.739Z,100.00
2023-04-23T02:09:10.554Z,100.00
2023-04-23T02:11:37.027Z,100.00
2023-04-23T02:14:04.393Z,100.00
2023-04-23T02:16:31.331Z,100.00
2023-04-23T02:18:57.821Z,100.00
2023-04-23T02:21:27.616Z,100.00
2023-04-23T02:23:54.307Z,100.00
2023-04-23T02:26:22.664Z,100.00
2023-04-23T02:28:49.347Z,100.00
2023-04-23T02:31:16.560Z,100.00
2023-04-23T02:33:43.308Z,100.00
2023-04-23T02:36:12.455Z,99.66
2023-04-23T02:38:42.185Z,99.31
2023-04-23T02:41:08.676Z,100.00
2023-04-23T02:43:36.040Z,99.93
2023-04-23T02:46:08.413Z,100.00
2023-04-23T02:48:38.854Z,100.00
2023-04-23T02:51:06.475Z,100.00
2023-04-23T02:53:33.123Z,100.00
2023-04-23T02:55:59.720Z,100.00
2023-04-23T02:58:26.812Z,100.00
2023-04-23T03:00:56.031Z,100.00
2023-04-23T03:03:26.627Z,100.00
2023-04-23T03:05:54.090Z,100.00
2023-04-23T03:08:20.695Z,100.00
2023-04-23T03:10:48.079Z,100.00
2023-04-23T03:13:14.801Z,100.00
2023-04-23T03:15:41.700Z,100.00
2023-04-23T03:18:08.368Z,100.00
2023-04-23T03:20:36.074Z,100.00
2023-04-23T03:23:03.528Z,100.00
2023-04-23T03:25:30.375Z,100.00
2023-04-23T03:27:57.101Z,99.55
2023-04-23T03:30:23.850Z,100.00
2023-04-23T03:32:50.884Z,100.00
2023-04-23T03:35:17.725Z,100.00
2023-04-23T03:37:47.320Z,100.00
2023-04-23T03:40:14.532Z,100.00
2023-04-23T03:42:43.100Z,100.00
2023-04-23T03:45:16.881Z,100.00
2023-04-23T03:47:44.381Z,100.00
2023-04-23T03:50:13.150Z,100.00
2023-04-23T03:52:41.430Z,99.60
2023-04-23T03:55:14.415Z,99.51
2023-04-23T03:57:45.030Z,98.00
2023-04-23T04:00:20.648Z,97.21
2023-04-23T04:02:47.399Z,97.55
2023-04-23T04:05:14.012Z,97.58
2023-04-23T04:07:41.120Z,99.06
2023-04-23T04:10:08.067Z,98.94
2023-04-23T04:12:34.542Z,98.73
2023-04-23T04:15:02.898Z,99.23
2023-04-23T04:17:29.282Z,98.72
2023-04-23T04:19:55.679Z,99.32
2023-04-23T04:22:22.552Z,98.62
2023-04-23T04:24:52.140Z,98.67
2023-04-23T04:27:18.674Z,97.45
2023-04-23T04:29:45.126Z,97.68
2023-04-23T04:32:11.524Z,98.07
2023-04-23T04:34:38.529Z,98.59
2023-04-23T04:37:05.285Z,97.89
2023-04-23T04:39:31.716Z,97.74
2023-04-23T04:41:59.829Z,96.95
2023-04-23T04:44:26.489Z,96.29
2023-04-23T04:46:53.770Z,95.12
2023-04-23T04:49:21.787Z,93.96
2023-04-23T04:51:48.432Z,93.65
2023-04-23T04:54:14.848Z,93.94
2023-04-23T04:56:41.259Z,93.34
2023-04-23T04:59:07.682Z,93.24
2023-04-23T05:01:34.227Z,92.99
2023-04-23T05:04:01.004Z,92.49
2023-04-23T05:06:28.827Z,92.92
2023-04-23T05:08:55.294Z,93.39
2023-04-23T05:11:21.782Z,93.05
2023-04-23T05:13:48.894Z,93.07
2023-04-23T05:16:15.690Z,92.53
2023-04-23T05:18:42.286Z,92.88
2023-04-23T05:21:08.951Z,92.45
2023-04-23T05:23:36.500Z,91.94
2023-04-23T05:26:03.601Z,92.07
2023-04-23T05:28:31.016Z,92.12
2023-04-23T05:30:58.297Z,92.12
2023-04-23T05:33:30.570Z,92.03
2023-04-23T05:35:59.700Z,91.20
2023-04-23T05:38:26.439Z,91.75
2023-04-23T05:40:52.941Z,91.40
2023-04-23T05:43:19.371Z,92.02
2023-04-23T05:45:46.129Z,92.28
2023-04-23T05:48:12.696Z,91.83
2023-04-23T05:50:39.234Z,91.85
2023-04-23T05:53:05.695Z,91.98
2023-04-23T05:55:32.115Z,91.32
2023-04-23T05:57:58.586Z,91.01
2023-04-23T06:00:25.307Z,91.81
2023-04-23T06:02:51.934Z,91.71
2023-04-23T06:05:19.397Z,91.63
2023-04-23T06:07:46.324Z,91.33
2023-04-23T06:10:12.873Z,90.85
2023-04-23T06:12:39.875Z,91.04
2023-04-23T06:15:10.174Z,90.44
2023-04-23T06:17:37.314Z,90.30
2023-04-23T06:20:05.052Z,88.98
2023-04-23T06:22:32.522Z,89.01
2023-04-23T06:24:59.329Z,89.70
2023-04-23T06:27:26.994Z,89.63
2023-04-23T06:29:56.793Z,89.96
2023-04-23T06:32:23.473Z,89.47
2023-04-23T06:35:00.247Z,89.45
2023-04-23T06:37:29.747Z,88.79
2023-04-23T06:39:56.779Z,88.67
2023-04-23T06:42:23.463Z,88.23
2023-04-23T06:45:07.010Z,87.09
2023-04-23T06:47:33.496Z,87.36
2023-04-23T06:50:00.188Z,86.22
2023-04-23T06:52:27.608Z,86.87
2023-04-23T06:54:54.108Z,86.66
2023-04-23T06:57:21.787Z,85.26
2023-04-23T06:59:48.454Z,85.96
2023-04-23T07:02:15.970Z,85.79
2023-04-23T07:04:42.798Z,86.65
2023-04-23T07:07:09.527Z,85.12
2023-04-23T07:09:35.966Z,84.41
2023-04-23T07:12:03.308Z,84.21
2023-04-23T07:14:29.762Z,84.82
2023-04-23T07:16:56.373Z,84.01
2023-04-23T07:19:22.857Z,84.43
2023-04-23T07:21:49.291Z,84.04
2023-04-23T07:24:16.604Z,83.98
2023-04-23T07:26:43.010Z,82.92
2023-04-23T07:29:11.246Z,82.86
2023-04-23T07:31:39.433Z,82.21
2023-04-23T07:34:06.537Z,82.30
2023-04-23T07:36:33.531Z,81.49
2023-04-23T07:39:00.012Z,81.12
2023-04-23T07:41:26.727Z,80.73
2023-04-23T07:43:53.402Z,80.92
2023-04-23T07:46:20.095Z,80.27
2023-04-23T07:48:46.555Z,80.40
2023-04-23T07:51:12.930Z,79.03
2023-04-23T07:53:39.374Z,79.16
2023-04-23T07:56:05.983Z,77.88
2023-04-23T07:58:33.235Z,76.90
2023-04-23T08:00:59.668Z,77.99
2023-04-23T08:03:26.564Z,76.69
2023-04-23T08:05:53.128Z,76.87
2023-04-23T08:08:19.551Z,76.60
2023-04-23T08:10:46.455Z,75.63
2023-04-23T08:13:12.883Z,75.07
2023-04-23T08:15:39.375Z,74.26
2023-04-23T08:18:06.272Z,73.62
2023-04-23T08:20:32.791Z,73.54
2023-04-23T08:22:59.429Z,72.57
2023-04-23T08:25:26.051Z,71.34
2023-04-23T08:27:52.764Z,70.77
2023-04-23T08:30:19.407Z,71.03
2023-04-23T08:32:49.949Z,70.16
2023-04-23T08:35:16.540Z,69.90
2023-04-23T08:37:42.956Z,68.98
2023-04-23T08:40:09.991Z,66.30
2023-04-23T08:42:38.492Z,64.08
2023-04-23T08:45:05.985Z,63.08
2023-04-23T08:47:32.693Z,62.22
2023-04-23T08:49:59.577Z,60.10
2023-04-23T08:52:29.363Z,59.84
2023-04-23T08:55:01.079Z,57.34
2023-04-23T08:57:27.966Z,57.78
2023-04-23T08:59:55.428Z,56.82
2023-04-23T09:02:23.182Z,57.02
2023-04-23T09:04:51.861Z,56.99
2023-04-23T09:07:19.324Z,56.08
2023-04-23T09:09:46.263Z,55.41
2023-04-23T09:12:12.764Z,55.41
2023-04-23T09:14:39.327Z,55.13
2023-04-23T09:17:06.220Z,53.89
2023-04-23T09:19:32.718Z,53.67
2023-04-23T09:22:01.955Z,53.96
2023-04-23T09:24:28.418Z,53.04
2023-04-23T09:26:55.112Z,51.02
2023-04-23T09:29:23.843Z,50.90
2023-04-23T09:31:52.580Z,50.87
2023-04-23T09:34:20.593Z,50.52
2023-04-23T09:36:50.561Z,49.56
2023-04-23T09:39:23.175Z,49.20
2023-04-23T09:41:52.838Z,46.58
2023-04-23T09:44:22.913Z,47.29
2023-04-23T09:46:49.944Z,48.14
2023-04-23T09:49:16.571Z,47.84
2023-04-23T09:51:48.552Z,46.95
2023-04-23T09:54:23.680Z,46.69
2023-04-23T09:56:53.788Z,46.68
2023-04-23T09:59:32.054Z,47.39
2023-04-23T10:02:07.749Z,47.12
2023-04-23T10:04:35.479Z,47.56
2023-04-23T10:07:17.931Z,49.28
2023-04-23T10:09:47.173Z,48.04
2023-04-23T10:14:46.916Z,46.84
2023-04-23T10:17:13.856Z,46.28
2023-04-23T10:19:43.374Z,46.35
2023-04-23T10:24:47.176Z,47.61
2023-04-23T10:27:28.420Z,46.21
2023-04-23T10:29:57.395Z,46.52
2023-04-23T10:32:24.330Z,45.16
2023-04-23T10:34:52.046Z,44.87
2023-04-23T10:37:21.934Z,45.20
2023-04-23T10:39:53.815Z,47.02
2023-04-23T10:42:21.675Z,46.77
2023-04-23T10:47:23.233Z,47.15
2023-04-23T10:49:49.794Z,47.01
2023-04-23T10:52:21.716Z,45.67
2023-04-23T10:54:57.883Z,44.47
2023-04-23T10:57:24.382Z,44.65
2023-04-23T10:59:55.930Z,43.74
2023-04-23T11:02:26.150Z,44.97
2023-04-23T11:04:57.707Z,45.46
2023-04-23T11:07:32.456Z,45.20
2023-04-23T11:10:01.029Z,44.46
2023-04-23T11:12:29.730Z,45.25
2023-04-23T11:14:57.059Z,45.17
2023-04-23T11:17:24.624Z,46.20
2023-04-23T11:20:14.840Z,46.34
2023-04-23T11:22:46.095Z,47.16
2023-04-23T11:25:14.970Z,48.05
2023-04-23T11:27:43.337Z,48.02
2023-04-23T11:30:18.163Z,48.16
2023-04-23T11:32:48.978Z,48.50
2023-04-23T11:35:18.823Z,48.92
2023-04-23T11:37:48.160Z,48.19
2023-04-23T11:40:19.131Z,47.62
2023-04-23T11:42:54.581Z,46.18
2023-04-23T11:45:23.438Z,46.81
2023-04-23T11:47:58.224Z,45.83
2023-04-23T11:50:30.471Z,45.72
2023-04-23T11:52:57.326Z,44.37
2023-04-23T11:55:24.289Z,44.30
2023-04-23T11:57:52.537Z,44.52
2023-04-23T12:00:22.267Z,44.39
2023-04-23T12:03:00.318Z,45.36
2023-04-23T12:05:36.741Z,45.93
2023-04-23T12:08:21.988Z,45.73
2023-04-23T12:10:53.587Z,46.75
2023-04-23T12:13:26.132Z,52.70
2023-04-23T12:15:58.328Z,58.99
2023-04-23T12:18:33.319Z,61.09
2023-04-23T12:21:11.056Z,61.99
2023-04-23T12:23:39.368Z,62.45
2023-04-23T12:26:11.728Z,59.83
2023-04-23T12:28:51.235Z,55.32
2023-04-23T12:31:23.122Z,55.43
2023-04-23T12:34:07.084Z,55.45
2023-04-23T12:36:35.218Z,56.57
2023-04-23T12:39:32.241Z,55.26
2023-04-23T12:42:06.458Z,53.52
2023-04-23T12:44:35.298Z,52.38
2023-04-23T12:47:04.778Z,53.59
2023-04-23T12:49:32.932Z,51.85
2023-04-23T12:52:02.169Z,49.34
2023-04-23T12:54:31.137Z,49.71
2023-04-23T12:56:59.438Z,50.36
2023-04-23T12:59:26.370Z,50.58
2023-04-23T13:01:53.273Z,49.41
2023-04-23T13:04:19.889Z,52.11
2023-04-23T13:06:46.531Z,51.98
2023-04-23T13:09:13.273Z,53.05
2023-04-23T13:11:40.866Z,52.45
2023-04-23T13:14:07.901Z,55.15
2023-04-23T13:16:35.313Z,54.67
2023-04-23T13:19:02.255Z,54.40
2023-04-23T13:21:28.708Z,67.81
2023-04-23T13:23:56.925Z,72.89
2023-04-23T13:26:23.803Z,70.95
2023-04-23T13:28:50.505Z,66.45
2023-04-23T13:31:16.914Z,70.70
2023-04-23T13:33:43.391Z,72.16
2023-04-23T13:36:10.939Z,72.43
2023-04-23T13:38:37.515Z,71.30
2023-04-23T13:41:04.453Z,70.85
2023-04-23T13:43:30.882Z,67.68
2023-04-23T13:45:57.481Z,68.14
2023-04-23T13:48:28.594Z,70.59
2023-04-23T13:50:55.814Z,70.94
2023-04-23T13:53:23.090Z,70.68
2023-04-23T13:55:49.847Z,69.15
2023-04-23T13:58:16.494Z,68.04
2023-04-23T14:00:43.795Z,66.01
2023-04-23T14:03:11.046Z,67.41
2023-04-23T14:05:38.291Z,66.66
2023-04-23T14:08:05.076Z,67.30
2023-04-23T14:10:31.515Z,67.02
2023-04-23T14:12:57.927Z,66.03
2023-04-23T14:15:24.538Z,66.52
2023-04-23T14:17:51.004Z,65.75
2023-04-23T14:20:19.915Z,67.00
2023-04-23T14:22:51.326Z,65.45
2023-04-23T14:25:29.045Z,65.85
2023-04-23T14:27:56.986Z,66.08
2023-04-23T14:30:26.223Z,66.27
2023-04-23T14:32:54.890Z,65.61
2023-04-23T14:35:35.640Z,66.26
2023-04-23T14:38:08.222Z,65.37
2023-04-23T14:40:34.800Z,64.37
2023-04-23T14:43:14.494Z,62.67
2023-04-23T14:45:41.810Z,62.92
2023-04-23T14:48:08.283Z,62.38
2023-04-23T14:50:34.745Z,62.25
2023-04-23T14:53:04.076Z,58.84
2023-04-23T14:55:30.810Z,60.47
2023-04-23T14:57:57.328Z,61.51
2023-04-23T15:00:23.760Z,60.74
2023-04-23T15:02:50.669Z,58.75
2023-04-23T15:05:17.175Z,59.40
2023-04-23T15:07:43.660Z,58.57
2023-04-23T15:10:11.557Z,57.38
2023-04-23T15:12:41.051Z,55.82
2023-04-23T15:15:48.342Z,57.09
2023-04-23T15:18:15.705Z,55.18
2023-04-23T15:20:43.829Z,55.29
2023-04-23T15:23:10.966Z,54.31
2023-04-23T15:25:39.091Z,55.62
2023-04-23T15:28:06.991Z,53.90
2023-04-23T15:30:33.397Z,54.06
2023-04-23T15:33:00.062Z,54.82
2023-04-23T15:35:28.537Z,54.22
2023-04-23T15:37:55.028Z,54.21
2023-04-23T15:40:21.574Z,55.02
2023-04-23T15:42:49.819Z,55.67
2023-04-23T15:45:16.877Z,57.31
2023-04-23T15:47:43.378Z,56.91
2023-04-23T15:50:10.663Z,58.50
2023-04-23T15:52:37.514Z,59.55
2023-04-23T15:55:04.784Z,60.32
2023-04-23T15:57:31.758Z,61.12
2023-04-23T15:59:58.267Z,61.33
2023-04-23T16:02:24.760Z,60.97
2023-04-23T16:04:51.469Z,60.86
2023-04-23T16:07:18.247Z,58.90
2023-04-23T16:09:44.707Z,58.54
2023-04-23T16:12:11.394Z,58.29
2023-04-23T16:14:38.010Z,58.32
2023-04-23T16:17:04.502Z,58.05
2023-04-23T16:19:31.115Z,58.11
2023-04-23T16:21:57.636Z,58.85
2023-04-23T16:24:24.532Z,58.65
2023-04-23T16:26:51.040Z,58.52
2023-04-23T16:29:22.830Z,59.73
2023-04-23T16:31:50.105Z,59.53
2023-04-23T16:34:16.935Z,59.98
2023-04-23T16:36:43.438Z,61.02
2023-04-23T16:39:10.993Z,60.90
2023-04-23T16:41:37.408Z,61.66
2023-04-23T16:44:03.866Z,60.34
2023-04-23T16:46:31.672Z,58.93
2023-04-23T16:48:58.505Z,59.82
2023-04-23T16:51:25.187Z,60.50
2023-04-23T16:53:51.589Z,60.41
2023-04-23T16:56:18.402Z,59.40
2023-04-23T16:58:44.790Z,59.34
2023-04-23T17:01:11.269Z,59.68
2023-04-23T17:03:39.067Z,60.08
2023-04-23T17:06:29.460Z,61.15
2023-04-23T17:09:00.359Z,61.41
2023-04-23T17:11:29.730Z,62.21
2023-04-23T17:13:57.261Z,62.47
2023-04-23T17:16:27.582Z,63.25
2023-04-23T17:18:55.476Z,62.39
2023-04-23T17:21:22.662Z,62.01
2023-04-23T17:23:49.196Z,62.30
2023-04-23T17:26:15.650Z,62.96
2023-04-23T17:28:42.231Z,62.32
2023-04-23T17:31:09.001Z,62.81
2023-04-23T17:33:35.890Z,62.97
2023-04-23T17:36:02.526Z,62.70
2023-04-23T17:38:29.574Z,62.59
2023-04-23T17:40:56.255Z,63.16
2023-04-23T17:43:22.732Z,63.27
2023-04-23T17:45:49.164Z,63.12
2023-04-23T17:48:15.881Z,63.76
2023-04-23T17:50:43.590Z,63.82
2023-04-23T17:53:10.497Z,63.65
2023-04-23T17:55:36.909Z,64.08
2023-04-23T17:58:06.407Z,64.63
2023-04-23T18:00:37.425Z,64.87
2023-04-23T18:03:04.407Z,65.13
2023-04-23T18:05:31.227Z,65.52
2023-04-23T18:07:58.960Z,66.04
2023-04-23T18:10:25.722Z,65.91
2023-04-23T18:12:52.381Z,66.07
2023-04-23T18:15:18.893Z,67.04
2023-04-23T18:17:45.886Z,67.19
2023-04-23T18:20:13.358Z,68.34
2023-04-23T18:22:41.464Z,68.63
2023-04-23T18:25:12.716Z,69.16
2023-04-23T18:27:39.404Z,69.09
2023-04-23T18:30:08.093Z,69.86
2023-04-23T18:32:46.990Z,69.82
2023-04-23T18:35:13.858Z,70.06
2023-04-23T18:37:48.766Z,69.49
2023-04-23T18:40:15.225Z,69.26
2023-04-23T18:42:41.668Z,69.19
2023-04-23T18:45:08.577Z,69.74
2023-04-23T18:47:49.862Z,69.44
2023-04-23T18:50:38.406Z,69.39
2023-04-23T18:53:05.088Z,69.98
2023-04-23T18:55:31.662Z,70.15
2023-04-23T18:57:58.687Z,69.53
2023-04-23T19:00:25.714Z,69.77
2023-04-23T19:02:52.426Z,70.33
2023-04-23T19:05:19.034Z,69.96
2023-04-23T19:07:45.747Z,70.12
2023-04-23T19:10:12.924Z,69.72
2023-04-23T19:12:39.328Z,70.08
2023-04-23T19:15:06.505Z,71.17
2023-04-23T19:17:33.022Z,71.68
2023-04-23T19:19:59.789Z,71.89
2023-04-23T19:22:26.383Z,72.75
2023-04-23T19:24:53.107Z,73.34
2023-04-23T19:27:19.975Z,75.43
2023-04-23T19:29:48.299Z,75.93
2023-04-23T19:32:14.747Z,77.24
2023-04-23T19:34:41.274Z,77.92
2023-04-23T19:37:07.701Z,78.68
2023-04-23T19:39:34.206Z,79.96
2023-04-23T19:42:02.480Z,79.83
2023-04-23T19:44:28.978Z,81.01
2023-04-23T19:46:56.530Z,82.26
2023-04-23T19:49:23.155Z,82.10
2023-04-23T19:51:53.390Z,83.73
2023-04-23T19:54:19.928Z,84.62
2023-04-23T19:56:46.673Z,85.07
2023-04-23T19:59:20.770Z,84.86
2023-04-23T20:01:47.870Z,85.42
2023-04-23T20:04:14.553Z,85.27
2023-04-23T20:06:41.524Z,86.02
2023-04-23T20:09:08.254Z,86.76
2023-04-23T20:11:35.401Z,86.98
2023-04-23T20:14:02.222Z,87.12
2023-04-23T20:16:28.895Z,87.37
2023-04-23T20:18:58.350Z,87.10
2023-04-23T20:21:24.903Z,87.20
2023-04-23T20:23:51.390Z,88.40
2023-04-23T20:26:18.996Z,88.25
2023-04-23T20:28:47.486Z,87.07
2023-04-23T20:31:14.764Z,87.28
2023-04-23T20:33:41.251Z,87.50
2023-04-23T20:36:11.520Z,87.42
2023-04-23T20:38:38.898Z,87.69
2023-04-23T20:41:05.971Z,87.14
2023-04-23T20:43:34.325Z,87.54
2023-04-23T20:46:00.892Z,86.66
2023-04-23T20:48:30.577Z,86.68
2023-04-23T20:50:57.678Z,86.43
2023-04-23T20:53:24.583Z,86.74
2023-04-23T20:55:51.195Z,86.96
2023-04-23T20:58:17.813Z,86.06
2023-04-23T21:00:44.513Z,84.99
2023-04-23T21:03:11.718Z,86.05
2023-04-23T21:05:40.292Z,87.69
2023-04-23T21:08:07.484Z,89.30
2023-04-23T21:10:33.925Z,90.89
2023-04-23T21:13:00.466Z,91.22
2023-04-23T21:15:29.624Z,92.56
2023-04-23T21:17:56.078Z,93.32
2023-04-23T21:20:22.846Z,92.71
2023-04-23T21:22:49.251Z,92.74
2023-04-23T21:25:15.852Z,92.94
2023-04-23T21:27:46.609Z,93.65
2023-04-23T21:30:56.544Z,93.56
2023-04-23T21:33:25.158Z,94.45
2023-04-23T21:35:53.626Z,94.17
2023-04-23T21:38:21.241Z,94.49
2023-04-23T21:40:47.930Z,94.65
2023-04-23T21:43:14.816Z,94.57
2023-04-23T21:45:41.325Z,94.77
2023-04-23T21:48:07.969Z,94.33
2023-04-23T21:50:34.728Z,95.03
2023-04-23T21:53:03.875Z,95.29
2023-04-23T21:55:34.006Z,95.26
2023-04-23T21:58:13.763Z,95.07
2023-04-23T22:00:44.498Z,95.30
2023-04-23T22:03:13.403Z,95.25
2023-04-23T22:05:49.230Z,95.44
2023-04-23T22:08:16.497Z,95.20
2023-04-23T22:10:43.237Z,94.57
2023-04-23T22:13:15.011Z,94.67
2023-04-23T22:15:42.163Z,94.55
2023-04-23T22:18:08.910Z,93.72
2023-04-23T22:20:37.463Z,93.05
2023-04-23T22:23:03.910Z,91.51
2023-04-23T22:25:30.343Z,91.64
2023-04-23T22:27:56.798Z,90.83
2023-04-23T22:30:23.443Z,89.94
2023-04-23T22:32:50.179Z,89.87
2023-04-23T22:35:16.869Z,88.11
2023-04-23T22:37:43.314Z,87.75
2023-04-23T22:40:10.320Z,86.53
2023-04-23T22:42:37.338Z,86.65
2023-04-23T22:45:03.953Z,85.41
2023-04-23T22:47:30.659Z,85.28
2023-04-23T22:49:57.105Z,85.41
2023-04-23T22:52:23.607Z,84.42
2023-04-23T22:54:50.241Z,83.71
2023-04-23T22:57:16.652Z,84.15
2023-04-23T22:59:43.561Z,84.27
2023-04-23T23:02:10.176Z,83.99
2023-04-23T23:04:38.845Z,84.36
2023-04-23T23:07:06.357Z,83.70
2023-04-23T23:09:32.890Z,83.41
2023-04-23T23:12:03.534Z,83.88
2023-04-23T23:14:31.719Z,83.80
2023-04-23T23:16:58.249Z,83.10
2023-04-23T23:19:26.959Z,83.42
2023-04-23T23:21:53.767Z,83.48
2023-04-23T23:24:20.525Z,83.72
2023-04-23T23:26:46.929Z,83.62
2023-04-23T23:29:13.577Z,84.14
2023-04-23T23:31:40.306Z,83.56
2023-04-23T23:34:06.805Z,83.50
2023-04-23T23:36:34.054Z,83.44
2023-04-23T23:39:01.042Z,83.43
2023-04-23T23:41:27.657Z,83.53
2023-04-23T23:43:54.851Z,83.74
2023-04-23T23:46:21.600Z,82.74
2023-04-23T23:48:48.278Z,82.51
2023-04-23T23:51:14.777Z,82.49
2023-04-23T23:53:41.207Z,83.01
2023-04-23T23:56:07.553Z,83.28
2023-04-23T23:58:33.953Z,83.28
